Sitka, AK (99835)

6:35 PM AKDT on August 24, 2016 (GMT -0800)
Sitka Rocky Gutierrez | | Change Station

Elev 20 ft 57.05 °N, 135.36 °W | Updated 42 minutes ago

Mostly Cloudy
Mostly Cloudy
60 °F
Feels Like 60 °F
N
5
Wind Variable Wind from SSW

Today
High -- | Low -- °F
--% Chance of Precip.
Yesterday
High -- | Low -- °F
Precip. -- in
Pressure 30.58 in
Visibility 10.0 miles
Clouds Mostly Cloudy 300 ft
Mostly Cloudy 1000 ft
Dew Point 58 °F
Humidity 93%
Rainfall 0.00 in
Snow Depth Not available.
5:48 AM 8:17 PM
Waning Gibbous, 51% visible
METAR PASI 250153Z 20004KT 10SM BKN003 BKN010 16/14 A3057 RMK AO2 CIG 002V008 SLP353 T01560144
Pressure 30.58 in
Visibility 10.0 miles
Clouds Mostly Cloudy 300 ft
Mostly Cloudy 1000 ft
Dew Point 58 °F
Humidity 93%
Rainfall 0.00 in
Snow Depth Not available.
5:48 AM 8:17 PM
Waning Gibbous, 51% visible
METAR PASI 250153Z 20004KT 10SM BKN003 BKN010 16/14 A3057 RMK AO2 CIG 002V008 SLP353 T01560144

10-Day Weather Forecast

Almanac

Astronomy

Aug. 24, 2016 Rise Set
Actual Time
Civil Twilight
Nautical Twilight
Astronomical Twilight
Moon
Length of Visible Light
Length of Day
Tomorrow will be .
, % of the Moon is Illuminated

Today's Extremes

State Highs State Lows

Community

WunderPhotos

Upload Photos

1,934,778 photos uploaded!

WunderBlog® & News

Nearby

Air Quality

  Air Quality AQ Index Pollutant
Not available.

Snow Depth

Station Depth Elevation

Earthquake Activity

City Distance Mag. Time & Date
Minimum magnitude displayed is 2.5.

Coastal Water Temperatures

Place Temperature

Stations

Nearby Weather Stations

Station Location Temp. Windchill Dew Point Humidity Wind Precip. Elev Updated Type
                   

Watches & Warnings

There are currently no watches in effect.